N812GH MMTO-MMTM
Flight info
| Callsign | N812GH |
|---|---|
| Flight time | 0h 39m |
| Altitude | 37000 |
| Route | OMPER3A OMPER DCT IKLAN UT141 TAM |
| Aircraft | CL35/M-SABDFGIRW/S |
Departure
| Time | 2026-05-05 16:16 |
|---|---|
| Airport | Adolfo López Mateos International Airport (MMTO) |
Arrival
| Time | 2026-05-05 16:56 |
|---|---|
| Airport | General Francisco Javier Mina International Airport (MMTM) |
| Time | Latitude | Longitude | Altitude | Speed | Heading |
|---|---|---|---|---|---|
| 2026-05-05 16:07 | 19.33542 | -99.56917 | 8468 ft | 0 kts | 69° |
| 2026-05-05 16:11 | 19.33549 | -99.56898 | 8463 ft | 7 kts | 69° |
| 2026-05-05 16:12 | 19.33579 | -99.56823 | 8465 ft | 15 kts | 66° |
| 2026-05-05 16:12 | 19.33693 | -99.56792 | 8464 ft | 11 kts | 337° |
| 2026-05-05 16:13 | 19.33997 | -99.56930 | 8468 ft | 20 kts | 337° |
| 2026-05-05 16:13 | 19.34134 | -99.56991 | 8464 ft | 23 kts | 336° |
| 2026-05-05 16:13 | 19.34285 | -99.57060 | 8468 ft | 25 kts | 337° |
| 2026-05-05 16:14 | 19.34630 | -99.57217 | 8468 ft | 29 kts | 339° |
| 2026-05-05 16:14 | 19.35021 | -99.57394 | 8468 ft | 32 kts | 337° |
| 2026-05-05 16:15 | 19.35367 | -99.57524 | 8465 ft | 14 kts | 34° |
| 2026-05-05 16:15 | 19.35364 | -99.57351 | 8468 ft | 36 kts | 156° |
| 2026-05-05 16:16 | 19.33571 | -99.56538 | 8550 ft | 234 kts | 158° |
| 2026-05-05 16:16 | 19.30573 | -99.55245 | 12068 ft | 241 kts | 155° |
| 2026-05-05 16:17 | 19.27356 | -99.53702 | 15167 ft | 260 kts | 156° |
| 2026-05-05 16:17 | 19.25660 | -99.52959 | 16631 ft | 267 kts | 156° |
| 2026-05-05 16:18 | 19.21989 | -99.51295 | 19220 ft | 313 kts | 155° |
| 2026-05-05 16:18 | 19.20290 | -99.50276 | 20160 ft | 330 kts | 137° |
| 2026-05-05 16:18 | 19.18772 | -99.45850 | 23125 ft | 344 kts | 82° |
| 2026-05-05 16:19 | 19.19418 | -99.43387 | 24511 ft | 352 kts | 69° |
| 2026-05-05 16:19 | 19.20370 | -99.40966 | 25747 ft | 361 kts | 66° |
| 2026-05-05 16:19 | 19.22538 | -99.36028 | 28220 ft | 380 kts | 64° |
| 2026-05-05 16:20 | 19.24790 | -99.31081 | 30410 ft | 401 kts | 64° |
| 2026-05-05 16:20 | 19.27398 | -99.25409 | 31387 ft | 446 kts | 64° |
| 2026-05-05 16:21 | 19.29595 | -99.20648 | 33597 ft | 446 kts | 64° |
| 2026-05-05 16:22 | 19.33730 | -99.11875 | 37235 ft | 441 kts | 60° |
| 2026-05-05 16:22 | 19.37745 | -99.06532 | 37393 ft | 492 kts | 42° |
| 2026-05-05 16:23 | 19.43616 | -99.02503 | 38841 ft | 503 kts | 22° |
| 2026-05-05 16:23 | 19.46781 | -99.01337 | 40235 ft | 490 kts | 14° |
| 2026-05-05 16:23 | 19.53478 | -99.00373 | 41518 ft | 495 kts | 0° |
| 2026-05-05 16:24 | 19.56809 | -99.00314 | 43336 ft | 461 kts | 357° |
| 2026-05-05 16:24 | 19.59884 | -99.00495 | 45465 ft | 422 kts | 349° |
| 2026-05-05 16:24 | 19.65097 | -99.01437 | 47928 ft | 364 kts | 345° |
| 2026-05-05 16:25 | 19.67669 | -99.01857 | 47627 ft | 381 kts | 349° |
| 2026-05-05 16:25 | 19.73056 | -99.02458 | 47426 ft | 396 kts | 348° |
| 2026-05-05 16:25 | 19.75806 | -99.02864 | 47345 ft | 402 kts | 348° |
| 2026-05-05 16:26 | 19.81445 | -99.03632 | 47256 ft | 413 kts | 349° |
| 2026-05-05 16:26 | 19.87212 | -99.04228 | 46953 ft | 421 kts | 356° |
| 2026-05-05 16:27 | 19.90156 | -99.04044 | 46691 ft | 426 kts | 4° |
| 2026-05-05 16:27 | 19.93086 | -99.03445 | 46354 ft | 433 kts | 11° |
| 2026-05-05 16:27 | 19.96002 | -99.02600 | 46027 ft | 436 kts | 11° |
| 2026-05-05 16:27 | 19.98940 | -99.01769 | 45693 ft | 438 kts | 11° |
| 2026-05-05 16:28 | 20.04771 | -99.00114 | 45566 ft | 428 kts | 11° |
| 2026-05-05 16:28 | 20.10466 | -98.98482 | 45456 ft | 419 kts | 11° |
| 2026-05-05 16:29 | 20.16052 | -98.96892 | 45456 ft | 412 kts | 11° |
| 2026-05-05 16:29 | 20.21538 | -98.95319 | 45451 ft | 405 kts | 11° |
| 2026-05-05 16:30 | 20.26942 | -98.93776 | 45441 ft | 399 kts | 11° |
| 2026-05-05 16:30 | 20.29667 | -98.93000 | 45458 ft | 411 kts | 11° |
| 2026-05-05 16:30 | 20.32471 | -98.92199 | 45096 ft | 426 kts | 11° |
| 2026-05-05 16:31 | 20.35365 | -98.91368 | 44504 ft | 434 kts | 11° |
| 2026-05-05 16:31 | 20.38290 | -98.90525 | 43872 ft | 436 kts | 11° |
| 2026-05-05 16:31 | 20.41206 | -98.89598 | 43283 ft | 439 kts | 17° |
| 2026-05-05 16:31 | 20.44004 | -98.88276 | 42705 ft | 443 kts | 24° |
| 2026-05-05 16:32 | 20.46650 | -98.86566 | 42119 ft | 447 kts | 32° |
| 2026-05-05 16:32 | 20.49173 | -98.84614 | 41519 ft | 448 kts | 33° |
| 2026-05-05 16:32 | 20.51707 | -98.82667 | 40930 ft | 449 kts | 33° |
| 2026-05-05 16:32 | 20.54255 | -98.80728 | 40332 ft | 450 kts | 33° |
| 2026-05-05 16:33 | 20.56798 | -98.78772 | 39731 ft | 451 kts | 33° |
| 2026-05-05 16:33 | 20.59337 | -98.76806 | 39137 ft | 451 kts | 34° |
| 2026-05-05 16:33 | 20.61854 | -98.74867 | 38539 ft | 451 kts | 34° |
| 2026-05-05 16:33 | 20.64433 | -98.72890 | 37906 ft | 449 kts | 34° |
| 2026-05-05 16:34 | 20.66964 | -98.70942 | 37298 ft | 447 kts | 34° |
| 2026-05-05 16:34 | 20.69478 | -98.68997 | 36710 ft | 446 kts | 34° |
| 2026-05-05 16:34 | 20.71989 | -98.67060 | 36121 ft | 444 kts | 34° |
| 2026-05-05 16:34 | 20.74463 | -98.65156 | 35539 ft | 442 kts | 34° |
| 2026-05-05 16:35 | 20.76986 | -98.63210 | 34951 ft | 440 kts | 34° |
| 2026-05-05 16:35 | 20.79430 | -98.61322 | 34374 ft | 438 kts | 34° |
| 2026-05-05 16:35 | 20.81891 | -98.59420 | 33783 ft | 436 kts | 34° |
| 2026-05-05 16:35 | 20.84343 | -98.57527 | 33184 ft | 433 kts | 34° |
| 2026-05-05 16:36 | 20.86773 | -98.55649 | 32612 ft | 429 kts | 34° |
| 2026-05-05 16:36 | 20.89181 | -98.53787 | 32049 ft | 425 kts | 34° |
| 2026-05-05 16:36 | 20.91566 | -98.51941 | 31487 ft | 422 kts | 34° |
| 2026-05-05 16:36 | 20.93934 | -98.50109 | 30939 ft | 418 kts | 34° |
| 2026-05-05 16:37 | 20.96303 | -98.48276 | 30383 ft | 422 kts | 34° |
| 2026-05-05 16:37 | 20.98686 | -98.46432 | 29801 ft | 425 kts | 34° |
| 2026-05-05 16:37 | 21.01088 | -98.44569 | 29212 ft | 427 kts | 34° |
| 2026-05-05 16:37 | 21.03497 | -98.42699 | 28640 ft | 428 kts | 34° |
| 2026-05-05 16:38 | 21.05914 | -98.40827 | 28073 ft | 429 kts | 34° |
| 2026-05-05 16:38 | 21.08336 | -98.38952 | 27517 ft | 430 kts | 34° |
| 2026-05-05 16:38 | 21.10758 | -98.37072 | 26982 ft | 430 kts | 34° |
| 2026-05-05 16:38 | 21.13182 | -98.35186 | 26416 ft | 431 kts | 34° |
| 2026-05-05 16:39 | 21.15612 | -98.33297 | 25841 ft | 432 kts | 34° |
| 2026-05-05 16:39 | 21.18047 | -98.31409 | 25268 ft | 432 kts | 34° |
| 2026-05-05 16:39 | 21.20484 | -98.29516 | 24705 ft | 433 kts | 34° |
| 2026-05-05 16:39 | 21.22922 | -98.27617 | 24135 ft | 433 kts | 34° |
| 2026-05-05 16:40 | 21.25286 | -98.25610 | 23552 ft | 435 kts | 41° |
| 2026-05-05 16:40 | 21.27452 | -98.23351 | 22940 ft | 434 kts | 43° |
| 2026-05-05 16:40 | 21.29579 | -98.21069 | 22365 ft | 431 kts | 43° |
| 2026-05-05 16:40 | 21.31716 | -98.18844 | 21805 ft | 424 kts | 42° |
| 2026-05-05 16:41 | 21.33827 | -98.16684 | 21255 ft | 415 kts | 42° |
| 2026-05-05 16:41 | 21.34223 | -98.16276 | 21148 ft | 414 kts | 42° |
| 2026-05-05 16:41 | 21.35983 | -98.14438 | 20658 ft | 409 kts | 43° |
| 2026-05-05 16:42 | 21.37990 | -98.12317 | 20136 ft | 402 kts | 43° |
| 2026-05-05 16:42 | 21.39974 | -98.10239 | 19624 ft | 396 kts | 43° |
| 2026-05-05 16:42 | 21.41943 | -98.08200 | 19105 ft | 391 kts | 42° |
| 2026-05-05 16:42 | 21.43886 | -98.06176 | 18602 ft | 387 kts | 43° |
| 2026-05-05 16:43 | 21.45854 | -98.04220 | 18075 ft | 383 kts | 36° |
| 2026-05-05 16:43 | 21.48139 | -98.02939 | 17571 ft | 369 kts | 18° |
| 2026-05-05 16:43 | 21.50624 | -98.02316 | 17076 ft | 356 kts | 10° |
| 2026-05-05 16:43 | 21.52983 | -98.01853 | 16736 ft | 343 kts | 9° |
| 2026-05-05 16:44 | 21.55303 | -98.01385 | 16306 ft | 336 kts | 10° |
| 2026-05-05 16:44 | 21.57582 | -98.00915 | 15872 ft | 331 kts | 10° |
| 2026-05-05 16:44 | 21.59834 | -98.00457 | 15440 ft | 327 kts | 10° |
| 2026-05-05 16:44 | 21.62056 | -98.00008 | 15015 ft | 324 kts | 10° |
| 2026-05-05 16:45 | 21.64262 | -97.99558 | 14588 ft | 321 kts | 10° |
| 2026-05-05 16:45 | 21.66454 | -97.99109 | 14165 ft | 320 kts | 10° |
| 2026-05-05 16:45 | 21.68635 | -97.98665 | 13749 ft | 318 kts | 9° |
| 2026-05-05 16:45 | 21.70806 | -97.98221 | 13298 ft | 316 kts | 9° |
| 2026-05-05 16:46 | 21.72959 | -97.97779 | 12878 ft | 314 kts | 9° |
| 2026-05-05 16:46 | 21.75098 | -97.97343 | 12462 ft | 312 kts | 9° |
| 2026-05-05 16:46 | 21.77222 | -97.96913 | 12058 ft | 310 kts | 9° |
| 2026-05-05 16:46 | 21.79332 | -97.96480 | 11652 ft | 308 kts | 9° |
| 2026-05-05 16:47 | 21.81430 | -97.96051 | 11249 ft | 306 kts | 9° |
| 2026-05-05 16:47 | 21.83520 | -97.95623 | 10843 ft | 305 kts | 8° |
| 2026-05-05 16:47 | 21.85603 | -97.95196 | 10443 ft | 304 kts | 8° |
| 2026-05-05 16:47 | 21.87673 | -97.94775 | 10179 ft | 298 kts | 8° |
| 2026-05-05 16:48 | 21.89174 | -97.94468 | 10230 ft | 284 kts | 8° |
| 2026-05-05 16:48 | 21.91065 | -97.94077 | 10229 ft | 270 kts | 8° |
| 2026-05-05 16:48 | 21.92868 | -97.93708 | 10383 ft | 258 kts | 8° |
| 2026-05-05 16:48 | 21.94599 | -97.93355 | 10592 ft | 248 kts | 8° |
| 2026-05-05 16:49 | 21.96323 | -97.93004 | 10561 ft | 255 kts | 8° |
| 2026-05-05 16:49 | 21.98093 | -97.92643 | 10525 ft | 262 kts | 8° |
| 2026-05-05 16:49 | 21.99895 | -97.92274 | 10539 ft | 265 kts | 8° |
| 2026-05-05 16:49 | 22.01721 | -97.91897 | 10546 ft | 269 kts | 8° |
| 2026-05-05 16:50 | 22.03571 | -97.91519 | 10549 ft | 272 kts | 8° |
| 2026-05-05 16:50 | 22.05439 | -97.91136 | 10548 ft | 274 kts | 8° |
| 2026-05-05 16:50 | 22.07343 | -97.90745 | 10232 ft | 289 kts | 8° |
| 2026-05-05 16:50 | 22.09394 | -97.90328 | 9587 ft | 311 kts | 8° |
| 2026-05-05 16:51 | 22.11391 | -97.89912 | 8410 ft | 277 kts | 8° |
| 2026-05-05 16:51 | 22.13220 | -97.89530 | 7147 ft | 261 kts | 7° |
| 2026-05-05 16:51 | 22.14974 | -97.89175 | 5904 ft | 253 kts | 7° |
| 2026-05-05 16:51 | 22.16700 | -97.88831 | 4798 ft | 252 kts | 10° |
| 2026-05-05 16:52 | 22.18360 | -97.88487 | 4037 ft | 239 kts | 12° |
| 2026-05-05 16:52 | 22.19951 | -97.88154 | 3287 ft | 227 kts | 12° |
| 2026-05-05 16:52 | 22.21474 | -97.87843 | 2529 ft | 220 kts | 11° |
| 2026-05-05 16:52 | 22.22957 | -97.87543 | 2165 ft | 219 kts | 11° |
| 2026-05-05 16:53 | 22.24485 | -97.87322 | 1905 ft | 224 kts | 6° |
| 2026-05-05 16:53 | 22.26058 | -97.87278 | 1669 ft | 227 kts | 358° |
| 2026-05-05 16:53 | 22.27558 | -97.87699 | 1379 ft | 226 kts | 323° |
| 2026-05-05 16:53 | 22.28823 | -97.88676 | 1238 ft | 221 kts | 322° |
| 2026-05-05 16:54 | 22.30030 | -97.89679 | 1137 ft | 209 kts | 322° |
| 2026-05-05 16:54 | 22.31091 | -97.90401 | 1276 ft | 160 kts | 342° |
| 2026-05-05 16:54 | 22.32113 | -97.90255 | 1131 ft | 139 kts | 34° |
| 2026-05-05 16:54 | 22.32497 | -97.89395 | 1074 ft | 138 kts | 108° |
| 2026-05-05 16:55 | 22.31915 | -97.88694 | 755 ft | 123 kts | 144° |
| 2026-05-05 16:55 | 22.31216 | -97.88167 | 424 ft | 122 kts | 147° |
| 2026-05-05 16:55 | 22.30536 | -97.87662 | 209 ft | 114 kts | 146° |
| 2026-05-05 16:55 | 22.29905 | -97.87187 | 106 ft | 102 kts | 146° |
| 2026-05-05 16:56 | 22.29408 | -97.86818 | 94 ft | 68 kts | 144° |
| 2026-05-05 16:56 | 22.29167 | -97.86642 | 96 ft | 22 kts | 163° |
| 2026-05-05 16:56 | 22.29082 | -97.86713 | 95 ft | 18 kts | 233° |
| 2026-05-05 16:56 | 22.29007 | -97.86833 | 95 ft | 19 kts | 256° |
| 2026-05-05 16:57 | 22.29028 | -97.86925 | 95 ft | 9 kts | 241° |
| 2026-05-05 16:57 | 22.29015 | -97.86944 | 95 ft | 3 kts | 234° |
| 2026-05-05 16:57 | 22.29013 | -97.86947 | 95 ft | 0 kts | 234° |